createdAt,value
2023-01-29T00:03:07.973Z,2.78
2023-01-29T00:08:11.367Z,2.73
2023-01-29T00:13:14.731Z,2.72
2023-01-29T00:18:18.014Z,2.73
2023-01-29T00:23:21.282Z,2.68
2023-01-29T00:28:24.533Z,2.66
2023-01-29T00:33:29.364Z,2.66
2023-01-29T00:38:34.657Z,2.67
2023-01-29T00:43:56.958Z,2.67
2023-01-29T00:49:00.966Z,2.65
2023-01-29T00:54:07.027Z,2.63
2023-01-29T00:59:10.175Z,2.63
2023-01-29T01:04:14.501Z,2.60
2023-01-29T01:09:36.696Z,2.60
2023-01-29T01:14:43.276Z,2.60
2023-01-29T01:19:46.670Z,2.56
2023-01-29T01:24:50.638Z,2.54
2023-01-29T01:29:53.959Z,2.55
2023-01-29T01:34:57.241Z,2.49
2023-01-29T01:40:00.588Z,2.41
2023-01-29T01:45:08.153Z,2.38
2023-01-29T01:50:32.753Z,2.35
2023-01-29T01:55:39.825Z,2.40
2023-01-29T02:00:43.771Z,2.46
2023-01-29T02:06:06.217Z,2.47
2023-01-29T02:11:09.771Z,2.46
2023-01-29T02:16:13.032Z,2.38
2023-01-29T02:22:01.147Z,2.32
2023-01-29T02:27:30.745Z,2.37
2023-01-29T02:32:54.589Z,2.37
2023-01-29T02:38:13.221Z,2.42
2023-01-29T02:43:33.295Z,2.41
2023-01-29T02:48:43.475Z,2.26
2023-01-29T02:54:17.173Z,2.03
2023-01-29T02:59:40.194Z,1.99
2023-01-29T03:04:54.063Z,1.97
2023-01-29T03:09:58.013Z,1.93
2023-01-29T03:15:11.755Z,1.90
2023-01-29T03:20:21.898Z,1.92
2023-01-29T03:25:46.639Z,1.99
2023-01-29T03:31:13.871Z,1.98
2023-01-29T03:36:27.334Z,1.95
2023-01-29T03:41:41.469Z,1.99
2023-01-29T03:47:11.190Z,1.96
2023-01-29T03:52:22.185Z,1.86
2023-01-29T03:57:37.359Z,1.90
2023-01-29T04:03:20.768Z,1.75
2023-01-29T04:08:29.086Z,1.68
2023-01-29T04:13:34.590Z,1.66
2023-01-29T04:18:38.507Z,1.67
2023-01-29T04:23:44.087Z,1.69
2023-01-29T04:29:06.990Z,1.65
2023-01-29T04:34:13.118Z,1.65
2023-01-29T04:39:22.554Z,1.67
2023-01-29T04:44:37.742Z,1.69
2023-01-29T04:49:49.427Z,1.68
2023-01-29T04:55:04.803Z,1.68
2023-01-29T05:00:24.793Z,1.66
2023-01-29T05:07:05.095Z,1.70
2023-01-29T05:12:11.477Z,1.70
2023-01-29T05:17:19.007Z,1.66
2023-01-29T05:22:23.495Z,1.60
2023-01-29T05:27:52.801Z,1.51
2023-01-29T05:32:56.265Z,1.32
2023-01-29T05:37:59.589Z,1.25
2023-01-29T05:43:03.124Z,1.22
2023-01-29T05:48:06.474Z,1.21
2023-01-29T05:53:09.834Z,1.18
2023-01-29T05:58:14.001Z,1.13
2023-01-29T06:03:17.313Z,1.15
2023-01-29T06:08:20.448Z,1.27
2023-01-29T06:13:23.852Z,1.34
2023-01-29T06:18:27.124Z,1.36
2023-01-29T06:23:31.371Z,1.28
2023-01-29T06:28:34.831Z,1.19
2023-01-29T06:33:38.191Z,1.18
2023-01-29T06:38:41.571Z,1.16
2023-01-29T06:43:46.813Z,1.01
2023-01-29T06:48:50.153Z,0.93
2023-01-29T06:53:54.827Z,0.96
2023-01-29T06:58:58.244Z,0.98
2023-01-29T07:04:01.598Z,1.01
2023-01-29T07:09:05.386Z,1.04
2023-01-29T07:14:09.062Z,1.05
2023-01-29T07:19:15.963Z,1.01
2023-01-29T07:24:19.599Z,0.96
2023-01-29T07:29:22.939Z,0.88
2023-01-29T07:34:26.208Z,0.83
2023-01-29T07:39:29.491Z,0.80
2023-01-29T07:44:32.886Z,0.86
2023-01-29T07:49:36.328Z,0.85
2023-01-29T07:54:39.534Z,0.84
2023-01-29T07:59:43.247Z,0.85
2023-01-29T08:04:46.541Z,0.82
2023-01-29T08:09:49.778Z,0.87
2023-01-29T08:14:53.122Z,0.92
2023-01-29T08:19:56.810Z,0.96
2023-01-29T08:25:08.199Z,1.06
2023-01-29T08:30:12.604Z,1.14
2023-01-29T08:35:16.041Z,1.22
2023-01-29T08:40:19.699Z,1.14
2023-01-29T08:45:23.076Z,1.17
2023-01-29T08:50:26.941Z,1.33
2023-01-29T08:55:30.374Z,1.42
2023-01-29T09:00:35.162Z,1.43
2023-01-29T09:05:40.592Z,1.47
2023-01-29T09:10:43.896Z,1.56
2023-01-29T09:15:47.282Z,1.55
2023-01-29T09:20:50.598Z,1.50
2023-01-29T09:25:54.154Z,1.46
2023-01-29T09:31:01.794Z,1.46
2023-01-29T09:36:06.701Z,1.49
2023-01-29T09:41:32.850Z,1.41
2023-01-29T09:46:42.398Z,1.43
2023-01-29T09:51:53.204Z,1.46
2023-01-29T09:56:58.409Z,1.51
2023-01-29T10:02:24.995Z,1.48
2023-01-29T10:07:56.675Z,1.48
2023-01-29T10:13:19.064Z,1.56
2023-01-29T10:18:41.641Z,1.46
2023-01-29T10:23:54.625Z,1.39
2023-01-29T10:29:01.820Z,1.36
2023-01-29T10:34:17.575Z,1.33
2023-01-29T10:39:27.193Z,1.30
2023-01-29T10:44:43.878Z,1.82
2023-01-29T10:49:59.202Z,3.17
2023-01-29T10:55:24.789Z,2.79
2023-01-29T11:00:34.370Z,2.49
2023-01-29T11:05:45.276Z,2.28
2023-01-29T11:11:12.955Z,2.11
2023-01-29T11:16:17.864Z,1.92
2023-01-29T11:21:26.142Z,1.80
2023-01-29T11:26:30.300Z,1.65
2023-01-29T11:31:40.569Z,1.48
2023-01-29T11:36:45.486Z,1.48
2023-01-29T11:41:59.679Z,1.50
2023-01-29T11:47:17.567Z,1.48
2023-01-29T11:52:26.036Z,1.45
2023-01-29T11:57:39.196Z,1.48
2023-01-29T12:02:46.802Z,1.45
2023-01-29T12:07:55.813Z,1.51
2023-01-29T12:13:20.151Z,1.54
2023-01-29T12:18:39.976Z,1.52
2023-01-29T12:24:08.358Z,1.45
2023-01-29T12:29:32.661Z,1.46
2023-01-29T12:34:56.079Z,1.59
2023-01-29T12:40:01.228Z,1.82
2023-01-29T12:45:11.147Z,1.82
2023-01-29T12:50:26.640Z,1.72
2023-01-29T12:55:55.913Z,1.68
2023-01-29T13:01:16.023Z,1.61
2023-01-29T13:06:31.572Z,1.55
2023-01-29T13:11:54.677Z,1.55
2023-01-29T13:17:11.655Z,1.58
2023-01-29T13:22:42.993Z,1.48
2023-01-29T13:27:48.063Z,1.48
2023-01-29T13:32:54.484Z,1.52
2023-01-29T13:37:58.558Z,2.59
2023-01-29T13:43:04.043Z,5.14
2023-01-29T13:48:22.138Z,6.26
2023-01-29T13:53:35.993Z,5.30
2023-01-29T13:58:39.453Z,4.31
2023-01-29T14:04:03.634Z,3.66
2023-01-29T14:09:46.599Z,3.12
2023-01-29T14:14:51.150Z,2.67
2023-01-29T14:20:04.569Z,2.53
2023-01-29T14:25:19.688Z,2.42
2023-01-29T14:30:27.878Z,2.27
2023-01-29T14:35:34.253Z,2.05
2023-01-29T14:40:41.949Z,1.80
2023-01-29T14:45:50.524Z,1.69
2023-01-29T14:51:00.117Z,1.62
2023-01-29T14:56:12.786Z,1.57
2023-01-29T15:01:27.761Z,1.46
2023-01-29T15:06:44.421Z,1.41
2023-01-29T15:12:42.513Z,1.34
2023-01-29T15:17:52.697Z,1.28
2023-01-29T15:22:57.657Z,1.24
2023-01-29T15:28:03.969Z,1.15
2023-01-29T15:33:10.980Z,1.08
2023-01-29T15:38:20.008Z,1.02
2023-01-29T15:43:30.315Z,1.03
2023-01-29T15:48:45.985Z,1.01
2023-01-29T15:53:52.525Z,0.90
2023-01-29T15:58:59.762Z,0.87
2023-01-29T16:04:04.530Z,0.82
2023-01-29T16:09:11.803Z,0.87
2023-01-29T16:14:21.881Z,0.90
2023-01-29T16:19:29.275Z,0.85
2023-01-29T16:24:36.720Z,0.82
2023-01-29T16:29:40.311Z,0.77
2023-01-29T16:34:48.498Z,0.72
2023-01-29T16:39:55.675Z,0.78
2023-01-29T16:45:24.691Z,0.80
2023-01-29T16:50:53.822Z,0.81
2023-01-29T16:56:09.200Z,0.81
2023-01-29T17:01:14.836Z,0.80
2023-01-29T17:06:24.527Z,0.74
2023-01-29T17:11:41.844Z,0.73
2023-01-29T17:17:15.710Z,0.68
2023-01-29T17:22:19.019Z,0.66
2023-01-29T17:43:34.890Z,0.56
2023-01-29T17:48:38.594Z,0.57
2023-01-29T17:53:45.820Z,0.60
2023-01-29T17:58:50.767Z,0.70
2023-01-29T18:03:54.565Z,0.73
2023-01-29T18:08:58.765Z,0.77
2023-01-29T18:14:04.583Z,0.78
2023-01-29T18:19:31.291Z,0.75
2023-01-29T18:24:36.351Z,0.76
2023-01-29T18:29:39.951Z,0.75
2023-01-29T18:34:43.777Z,0.73
2023-01-29T18:39:47.272Z,0.69
2023-01-29T18:44:50.731Z,0.72
2023-01-29T18:49:55.343Z,0.65
2023-01-29T18:54:58.651Z,0.64
2023-01-29T19:00:03.118Z,0.67
2023-01-29T19:05:06.688Z,0.66
2023-01-29T19:10:12.807Z,0.73
2023-01-29T19:15:20.733Z,0.72
2023-01-29T19:20:24.133Z,0.72
2023-01-29T19:25:27.608Z,0.71
2023-01-29T19:38:11.830Z,0.65
2023-01-29T19:43:17.956Z,0.58
2023-01-29T19:48:22.004Z,0.60
2023-01-29T19:53:27.814Z,0.55
2023-01-29T19:58:31.644Z,0.59
2023-01-29T20:03:35.089Z,0.62
2023-01-29T20:08:39.435Z,0.64
2023-01-29T20:13:46.697Z,0.61
2023-01-29T20:18:50.525Z,0.65
2023-01-29T20:23:54.868Z,0.64
2023-01-29T20:28:58.787Z,0.64
2023-01-29T20:34:04.395Z,0.64
2023-01-29T20:39:09.021Z,0.64
2023-01-29T20:44:15.643Z,0.63
2023-01-29T20:49:19.774Z,0.62
2023-01-29T21:02:06.422Z,0.58
2023-01-29T21:07:41.764Z,0.61
2023-01-29T21:12:45.852Z,0.91
2023-01-29T21:17:51.957Z,0.91
2023-01-29T21:22:56.670Z,0.87
2023-01-29T21:28:04.458Z,0.87
2023-01-29T21:33:08.943Z,0.85
2023-01-29T21:38:14.409Z,0.83
2023-01-29T21:43:17.750Z,0.80
2023-01-29T21:48:20.964Z,0.82
2023-01-29T21:53:24.357Z,0.81
2023-01-29T21:58:27.680Z,0.75
2023-01-29T22:03:30.997Z,0.70
2023-01-29T22:08:34.243Z,0.64
2023-01-29T22:13:37.779Z,0.68
2023-01-29T22:18:41.046Z,0.61
2023-01-29T22:23:49.523Z,0.62
2023-01-29T22:28:52.805Z,0.63
2023-01-29T22:33:56.225Z,0.63
2023-01-29T22:39:08.264Z,0.63
2023-01-29T22:44:11.806Z,0.64
2023-01-29T22:49:15.127Z,0.65
2023-01-29T22:54:18.389Z,0.64
2023-01-29T22:59:21.716Z,0.59
2023-01-29T23:04:25.044Z,0.62
2023-01-29T23:09:28.473Z,0.61
2023-01-29T23:14:31.878Z,0.64
2023-01-29T23:19:35.198Z,0.67
2023-01-29T23:24:38.593Z,0.68
2023-01-29T23:29:43.972Z,0.69
2023-01-29T23:34:47.363Z,0.74
2023-01-29T23:39:50.986Z,0.78
2023-01-29T23:44:54.367Z,0.83
2023-01-29T23:49:57.581Z,0.81
2023-01-29T23:55:00.856Z,0.85
